Time;durP1;ratioP1;P1;durP2;ratioP2;P2;SDS_P1;SDS_P2;PMS_P1;PMS_P2;Temp;Humidity;BMP_temperature;BMP_pressure;BME280_temperature;BME280_humidity;BME280_pressure;Samples;Min_cycle;Max_cycle;Signal;HPM_P1;HPM_P2
2022/01/06 00:02:16;;;;;;;3.25;1.55;;;17.40;57.10;;;;;;5050689;28;20526;-58
2022/01/06 00:04:44;;;;;;;5.93;1.80;;;17.40;57.20;;;;;;5052173;28;20282;-56
2022/01/06 00:07:09;;;;;;;6.25;2.45;;;17.40;57.10;;;;;;5055849;28;20202;-57
2022/01/06 00:09:36;;;;;;;3.60;1.80;;;17.40;57.00;;;;;;5054810;28;20341;-58
2022/01/06 00:12:01;;;;;;;3.33;1.45;;;17.30;57.00;;;;;;5055784;28;20179;-59
2022/01/06 00:25:10;;;;;;;6.78;2.15;;;17.30;57.10;;;;;;5055468;28;20190;-59
2022/01/06 00:27:36;;;;;;;4.68;1.70;;;17.30;57.10;;;;;;5055034;28;20175;-58
2022/01/06 00:30:02;;;;;;;3.58;1.88;;;17.20;57.10;;;;;;5054529;28;20674;-57
2022/01/06 00:32:27;;;;;;;5.30;2.08;;;17.20;57.10;;;;;;5055179;28;20179;-59
2022/01/06 00:34:52;;;;;;;4.30;2.25;;;17.20;57.00;;;;;;5055311;28;20203;-59
2022/01/06 00:37:18;;;;;;;5.10;1.65;;;17.20;57.10;;;;;;5054445;28;20636;-59
2022/01/06 00:39:44;;;;;;;3.50;1.48;;;17.20;57.10;;;;;;5054985;28;20178;-57
2022/01/06 00:42:13;;;;;;;4.35;1.73;;;17.20;57.10;;;;;;5054827;28;20214;-58
2022/01/06 00:44:38;;;;;;;3.40;1.50;;;17.10;57.10;;;;;;5053841;28;20757;-59
2022/01/06 00:47:13;;;;;;;3.05;1.67;;;17.10;57.00;;;;;;5055179;28;20649;-59
2022/01/06 00:49:38;;;;;;;6.28;2.00;;;17.10;57.00;;;;;;5054487;28;20220;-59
2022/01/06 00:52:04;;;;;;;5.10;2.00;;;17.10;57.00;;;;;;5054090;28;20215;-58
2022/01/06 00:54:32;;;;;;;5.57;1.75;;;17.10;57.00;;;;;;5054565;28;20490;-59
2022/01/06 00:56:57;;;;;;;3.10;1.50;;;17.10;56.90;;;;;;5054613;28;20175;-59
2022/01/06 00:59:23;;;;;;;3.33;1.25;;;17.10;57.10;;;;;;5053898;28;20178;-59
2022/01/06 01:01:48;;;;;;;3.45;2.00;;;17.10;57.00;;;;;;5054533;28;20175;-58
2022/01/06 01:04:14;;;;;;;2.90;1.67;;;17.00;57.00;;;;;;5054488;28;20210;-58
2022/01/06 01:06:39;;;;;;;6.30;2.10;;;17.00;57.00;;;;;;5053622;28;20186;-56
2022/01/06 01:09:05;;;;;;;3.65;1.60;;;17.00;57.00;;;;;;5054310;28;20241;-59
2022/01/06 01:11:30;;;;;;;6.15;2.15;;;17.00;57.00;;;;;;5053964;28;20230;-59
2022/01/06 01:13:56;;;;;;;5.07;1.92;;;17.00;57.00;;;;;;5053869;28;20511;-58
2022/01/06 01:16:30;;;;;;;4.47;1.95;;;17.00;57.10;;;;;;5053141;28;20560;-58
2022/01/06 01:18:56;;;;;;;4.68;1.83;;;17.00;57.00;;;;;;5053898;28;20172;-59
2022/01/06 01:21:26;;;;;;;4.72;1.75;;;17.00;57.00;;;;;;5054057;28;20175;-59
2022/01/06 01:23:52;;;;;;;5.20;1.70;;;17.00;57.00;;;;;;5054141;28;20171;-59
2022/01/06 01:26:17;;;;;;;4.72;1.90;;;17.00;57.00;;;;;;5053591;28;20229;-58
2022/01/06 01:28:44;;;;;;;4.07;1.55;;;16.90;57.00;;;;;;5053817;28;20356;-58
2022/01/06 01:33:49;;;;;;;3.55;1.60;;;16.90;57.00;;;;;;5053432;28;20179;-59
2022/01/06 01:36:14;;;;;;;3.25;1.67;;;16.90;56.90;;;;;;5053802;28;20179;-58
2022/01/06 01:38:40;;;;;;;3.38;1.65;;;16.90;56.90;;;;;;5053606;28;20615;-59
2022/01/06 01:41:06;;;;;;;5.32;1.92;;;16.90;56.90;;;;;;5053236;28;20501;-59
2022/01/06 01:43:31;;;;;;;4.63;1.80;;;16.90;57.30;;;;;;5053100;28;20630;-58
2022/01/06 01:45:59;;;;;;;5.03;2.03;;;16.90;56.90;;;;;;5053863;28;20176;-59
2022/01/06 01:48:32;;;;;;;5.93;1.88;;;16.80;56.90;;;;;;5052576;28;20658;-59
2022/01/06 01:50:57;;;;;;;3.67;1.60;;;16.90;57.00;;;;;;5053451;28;20226;-59
2022/01/06 01:53:23;;;;;;;4.45;1.95;;;16.80;56.90;;;;;;5053290;28;20189;-59
2022/01/06 01:55:49;;;;;;;4.00;1.70;;;16.80;56.90;;;;;;5052937;28;20175;-59
2022/01/06 01:58:14;;;;;;;3.92;1.88;;;16.80;56.90;;;;;;5053666;28;20194;-58
2022/01/06 02:00:40;;;;;;;4.53;2.25;;;16.80;56.80;;;;;;5052001;28;20175;-59
2022/01/06 02:03:06;;;;;;;3.55;1.65;;;16.80;56.90;;;;;;5052607;28;20229;-59
2022/01/06 02:05:32;;;;;;;3.80;1.67;;;16.80;56.90;;;;;;5053176;28;20175;-58
2022/01/06 02:08:01;;;;;;;3.15;1.70;;;16.80;57.00;;;;;;5052716;28;20181;-63
2022/01/06 02:10:27;;;;;;;4.55;1.60;;;16.70;56.90;;;;;;5053056;28;20176;-59
2022/01/06 02:12:55;;;;;;;2.40;1.25;;;16.70;56.90;;;;;;5053286;28;20270;-59
2022/01/06 02:15:20;;;;;;;3.22;1.70;;;16.80;56.90;;;;;;5052263;28;20257;-60
2022/01/06 02:17:47;;;;;;;4.50;1.95;;;16.70;56.90;;;;;;5053166;28;20703;-58
2022/01/06 02:20:14;;;;;;;6.45;1.70;;;16.70;56.90;;;;;;5052944;28;20175;-58
2022/01/06 02:22:39;;;;;;;4.47;2.00;;;16.70;56.90;;;;;;5051837;28;20709;-59
2022/01/06 02:25:34;;;;;;;3.25;1.70;;;16.70;56.90;;;;;;5053134;28;20171;-58
2022/01/06 02:28:02;;;;;;;3.92;1.75;;;16.70;57.00;;;;;;5047785;28;20211;-58
2022/01/06 02:30:28;;;;;;;3.47;1.70;;;16.70;56.90;;;;;;5052013;28;20182;-58
2022/01/06 02:32:54;;;;;;;5.68;2.05;;;16.70;56.90;;;;;;5052794;28;20175;-58
2022/01/06 02:35:21;;;;;;;4.80;1.88;;;16.70;56.90;;;;;;5052304;28;20186;-58
2022/01/06 02:37:47;;;;;;;4.80;1.75;;;16.70;56.90;;;;;;5052221;28;20202;-58
2022/01/06 02:40:19;;;;;;;3.38;1.60;;;16.60;56.90;;;;;;5052546;28;20552;-58
2022/01/06 02:42:48;;;;;;;4.55;1.92;;;16.60;56.90;;;;;;5052519;28;20176;-59
2022/01/06 02:45:14;;;;;;;4.05;1.45;;;16.60;56.90;;;;;;5051774;28;20228;-59
2022/01/06 02:47:40;;;;;;;2.75;1.48;;;16.60;56.80;;;;;;5052342;28;20658;-57
2022/01/06 02:50:06;;;;;;;3.75;1.73;;;16.60;56.80;;;;;;5051853;28;20272;-58
2022/01/06 02:52:31;;;;;;;3.60;2.00;;;16.60;56.80;;;;;;5051874;28;20231;-58
2022/01/06 02:54:57;;;;;;;3.28;1.58;;;16.60;56.90;;;;;;5052186;28;20214;-58
2022/01/06 02:57:22;;;;;;;3.40;1.85;;;16.60;56.90;;;;;;5051287;28;20948;-59
2022/01/06 02:59:48;;;;;;;3.80;1.67;;;16.60;56.90;;;;;;5052232;28;20196;-58
2022/01/06 03:02:13;;;;;;;3.55;1.73;;;16.60;56.90;;;;;;5052305;28;20171;-58
2022/01/06 03:04:39;;;;;;;4.80;1.90;;;16.50;56.80;;;;;;5051299;28;20171;-58
2022/01/06 03:07:06;;;;;;;2.47;1.40;;;16.60;56.80;;;;;;5052031;28;20175;-58
2022/01/06 03:09:39;;;;;;;5.10;2.33;;;16.60;56.90;;;;;;5051667;28;20211;-59
2022/01/06 03:12:22;;;;;;;3.00;1.60;;;16.50;56.80;;;;;;5051385;28;20642;-59
2022/01/06 03:14:47;;;;;;;3.30;1.58;;;16.50;56.90;;;;;;5051896;28;20182;-59
2022/01/06 03:17:13;;;;;;;4.30;1.67;;;16.50;56.90;;;;;;5052089;28;20179;-58
2022/01/06 03:19:38;;;;;;;2.97;1.60;;;16.50;56.80;;;;;;5051035;28;20270;-58
2022/01/06 03:22:04;;;;;;;3.08;1.60;;;16.50;56.80;;;;;;5052031;28;20179;-58
2022/01/06 03:24:29;;;;;;;3.22;1.52;;;16.50;56.90;;;;;;5051790;28;20296;-58
2022/01/06 03:26:55;;;;;;;5.68;1.70;;;16.50;56.80;;;;;;5050896;28;20244;-59
2022/01/06 03:29:20;;;;;;;3.25;1.50;;;16.50;56.80;;;;;;5051632;28;20219;-60
2022/01/06 03:31:46;;;;;;;4.88;1.90;;;16.50;56.70;;;;;;5051908;28;20182;-59
2022/01/06 03:34:14;;;;;;;2.83;1.42;;;16.50;56.80;;;;;;5051007;28;20269;-58
2022/01/06 03:36:40;;;;;;;3.15;1.45;;;16.50;56.80;;;;;;5051410;28;20613;-58
2022/01/06 03:39:05;;;;;;;3.80;1.50;;;16.40;56.80;;;;;;5050999;28;20179;-59
2022/01/06 03:41:32;;;;;;;3.20;1.33;;;16.40;56.80;;;;;;5050463;28;20167;-58
2022/01/06 03:43:58;;;;;;;5.18;1.60;;;16.40;56.80;;;;;;5051821;28;20179;-58
2022/01/06 03:46:23;;;;;;;3.17;1.50;;;16.40;56.80;;;;;;5050645;28;20197;-58
2022/01/06 03:48:49;;;;;;;3.40;1.45;;;16.40;56.80;;;;;;5051536;28;20210;-57
2022/01/06 03:51:14;;;;;;;4.32;1.60;;;16.40;56.80;;;;;;5051487;28;20731;-59
2022/01/06 03:53:40;;;;;;;3.25;2.00;;;16.40;56.80;;;;;;5050529;28;20446;-58
2022/01/06 03:56:05;;;;;;;2.92;1.50;;;16.40;56.80;;;;;;5051537;28;20264;-58
2022/01/06 03:58:31;;;;;;;4.93;1.98;;;16.40;56.80;;;;;;5051092;28;20197;-59
2022/01/06 04:00:56;;;;;;;4.05;1.60;;;16.40;56.80;;;;;;5050693;28;20481;-59
2022/01/06 04:03:22;;;;;;;3.45;1.58;;;16.30;56.80;;;;;;5051096;28;20171;-59
2022/01/06 04:05:47;;;;;;;4.00;1.83;;;16.30;56.70;;;;;;5051387;28;20237;-57
2022/01/06 04:08:13;;;;;;;3.35;1.60;;;16.30;56.80;;;;;;5050775;28;20194;-58
2022/01/06 04:10:38;;;;;;;2.25;1.35;;;16.40;56.80;;;;;;5051029;28;20201;-59
2022/01/06 04:13:04;;;;;;;2.60;1.40;;;16.30;56.70;;;;;;5051164;28;20171;-58
2022/01/06 04:15:29;;;;;;;4.80;1.95;;;16.30;56.80;;;;;;5050273;28;20175;-57
2022/01/06 04:17:55;;;;;;;3.42;1.30;;;16.30;56.70;;;;;;5051243;28;20171;-58
2022/01/06 04:20:20;;;;;;;5.85;1.40;;;16.30;56.80;;;;;;5050875;28;20207;-59
2022/01/06 04:22:46;;;;;;;4.28;1.65;;;16.30;56.80;;;;;;5050682;28;20171;-60
2022/01/06 04:25:11;;;;;;;3.20;1.58;;;16.30;56.70;;;;;;5051098;28;20200;-60
2022/01/06 04:27:37;;;;;;;2.08;1.25;;;16.30;56.70;;;;;;5051142;28;20682;-60
2022/01/06 04:30:05;;;;;;;2.45;1.58;;;16.30;56.80;;;;;;5050539;28;20215;-59
2022/01/06 04:32:31;;;;;;;4.88;1.63;;;16.30;56.70;;;;;;5050860;28;20179;-59
2022/01/06 04:34:56;;;;;;;2.90;1.45;;;16.30;56.70;;;;;;5051279;28;20186;-56
2022/01/06 04:37:22;;;;;;;3.83;1.25;;;16.20;56.60;;;;;;5050124;28;20634;-58
2022/01/06 04:39:48;;;;;;;3.35;1.60;;;16.20;56.70;;;;;;5051044;28;20175;-58
2022/01/06 04:42:13;;;;;;;4.75;2.05;;;16.20;56.70;;;;;;5051011;28;20186;-59
2022/01/06 04:44:39;;;;;;;4.28;1.65;;;16.20;56.70;;;;;;5049864;28;20179;-59
2022/01/06 04:47:04;;;;;;;3.70;1.50;;;16.20;56.70;;;;;;5050963;28;20201;-59
2022/01/06 04:49:29;;;;;;;4.60;1.52;;;16.20;56.70;;;;;;5050724;28;20275;-59
2022/01/06 04:51:55;;;;;;;2.33;1.50;;;16.20;56.70;;;;;;5052998;28;20219;-58
2022/01/06 04:54:21;;;;;;;4.05;1.58;;;16.20;56.70;;;;;;5054509;28;20558;-59
2022/01/06 04:56:46;;;;;;;3.08;1.45;;;16.20;56.70;;;;;;5054265;28;20178;-59
2022/01/06 04:59:12;;;;;;;3.03;1.60;;;16.20;56.70;;;;;;5054573;28;20203;-59
2022/01/06 05:01:38;;;;;;;3.55;1.67;;;16.10;56.70;;;;;;5054555;28;21014;-58
2022/01/06 05:04:04;;;;;;;3.45;1.60;;;16.10;56.70;;;;;;5053955;28;20580;-58
2022/01/06 05:06:29;;;;;;;2.72;1.65;;;16.10;56.70;;;;;;5054152;28;20175;-58
2022/01/06 05:08:55;;;;;;;4.93;1.67;;;16.10;56.70;;;;;;5054247;28;20706;-59
2022/01/06 05:11:20;;;;;;;3.63;1.67;;;16.10;56.70;;;;;;5053193;28;20182;-60
2022/01/06 05:13:46;;;;;;;3.95;1.70;;;16.10;56.70;;;;;;5054429;28;20505;-59
2022/01/06 05:16:11;;;;;;;2.55;1.30;;;16.10;56.70;;;;;;5054367;28;20272;-60
2022/01/06 05:18:38;;;;;;;4.15;1.63;;;16.10;56.70;;;;;;5053149;28;20641;-59
2022/01/06 05:21:05;;;;;;;3.25;1.55;;;16.10;56.70;;;;;;5054140;28;20193;-59
2022/01/06 05:23:30;;;;;;;3.42;1.85;;;16.10;56.70;;;;;;5053509;28;20183;-59
2022/01/06 05:25:57;;;;;;;2.90;1.48;;;16.10;56.70;;;;;;5053474;28;20186;-58
2022/01/06 05:28:22;;;;;;;2.53;1.30;;;16.00;56.60;;;;;;5053754;28;20672;-58
2022/01/06 05:30:48;;;;;;;3.00;1.50;;;16.00;56.60;;;;;;5054035;28;20578;-57
2022/01/06 05:33:13;;;;;;;3.58;1.75;;;16.00;56.60;;;;;;5053216;28;20187;-58
2022/01/06 05:35:39;;;;;;;3.33;1.30;;;16.00;56.70;;;;;;5053674;28;20171;-59
2022/01/06 05:38:04;;;;;;;5.53;2.03;;;16.00;56.60;;;;;;5053654;28;20184;-59
2022/01/06 05:40:30;;;;;;;2.30;1.27;;;16.00;56.60;;;;;;5052611;28;20171;-59
2022/01/06 05:42:57;;;;;;;3.15;1.38;;;16.00;56.70;;;;;;5053568;28;20202;-57
2022/01/06 05:45:23;;;;;;;2.65;1.60;;;16.00;56.60;;;;;;5053300;28;20258;-60
2022/01/06 05:47:48;;;;;;;3.95;1.40;;;16.00;56.60;;;;;;5053000;28;20258;-59
2022/01/06 05:50:14;;;;;;;3.13;1.60;;;16.00;56.60;;;;;;5053329;28;20221;-58
2022/01/06 05:52:39;;;;;;;2.55;1.48;;;16.00;56.60;;;;;;5053220;28;20186;-58
2022/01/06 05:55:05;;;;;;;4.97;1.77;;;15.90;56.60;;;;;;5052692;28;20522;-59
2022/01/06 05:57:30;;;;;;;4.80;1.65;;;16.00;57.30;;;;;;5053260;28;20211;-59
2022/01/06 05:59:56;;;;;;;2.72;1.30;;;16.00;56.70;;;;;;5053337;28;20202;-58
2022/01/06 06:02:21;;;;;;;3.45;1.42;;;15.90;56.60;;;;;;5052418;28;20265;-59
2022/01/06 06:04:47;;;;;;;3.17;1.92;;;15.90;57.30;;;;;;5053471;28;20175;-57
2022/01/06 06:07:17;;;;;;;3.80;1.65;;;15.90;56.60;;;;;;5052614;28;20671;-58
2022/01/06 06:09:43;;;;;;;2.90;1.42;;;15.90;56.50;;;;;;5053174;28;20215;-59
2022/01/06 06:12:09;;;;;;;2.42;1.10;;;15.90;56.60;;;;;;5053594;28;20182;-59
2022/01/06 06:14:34;;;;;;;4.78;1.98;;;15.90;56.60;;;;;;5052353;28;20179;-59
2022/01/06 06:17:00;;;;;;;3.33;1.33;;;15.90;56.60;;;;;;5053258;28;20220;-59
2022/01/06 06:19:25;;;;;;;3.05;1.48;;;15.90;56.50;;;;;;5053060;28;20206;-59
2022/01/06 06:21:51;;;;;;;2.97;1.48;;;15.90;56.30;;;;;;5052398;28;20179;-59
2022/01/06 06:24:18;;;;;;;4.20;1.60;;;15.90;56.30;;;;;;5053081;28;20179;-59
2022/01/06 06:26:44;;;;;;;3.30;1.60;;;15.80;56.20;;;;;;5053049;28;20190;-58
2022/01/06 06:29:09;;;;;;;3.78;1.38;;;15.80;56.00;;;;;;5052250;28;20211;-60
2022/01/06 06:31:35;;;;;;;3.58;1.42;;;15.80;56.00;;;;;;5052737;28;20175;-59
2022/01/06 06:34:00;;;;;;;3.15;1.52;;;15.80;55.90;;;;;;5053100;28;20574;-57
2022/01/06 06:36:26;;;;;;;3.35;1.67;;;15.80;55.90;;;;;;5051838;28;20562;-58
2022/01/06 06:38:51;;;;;;;4.18;1.80;;;15.80;55.80;;;;;;5052820;28;20187;-56
2022/01/06 06:41:17;;;;;;;5.63;1.60;;;15.80;55.80;;;;;;5052833;28;20471;-58
2022/01/06 06:43:42;;;;;;;4.03;1.60;;;15.80;55.70;;;;;;5051930;28;20190;-56
2022/01/06 06:46:08;;;;;;;3.13;1.27;;;15.80;55.80;;;;;;5052964;28;20266;-58
2022/01/06 06:48:34;;;;;;;2.58;1.42;;;15.70;55.60;;;;;;5052332;28;20215;-57
2022/01/06 06:51:01;;;;;;;3.60;1.55;;;15.80;55.70;;;;;;5051890;28;20808;-58
2022/01/06 06:53:26;;;;;;;4.18;1.90;;;15.70;56.30;;;;;;5052703;28;20175;-59
2022/01/06 06:55:52;;;;;;;4.22;1.48;;;15.70;55.60;;;;;;5052502;28;20197;-58
2022/01/06 06:58:17;;;;;;;3.30;1.65;;;15.70;55.60;;;;;;5051945;28;20163;-57
2022/01/06 07:00:43;;;;;;;2.53;1.40;;;15.70;55.60;;;;;;5052415;28;20171;-58
2022/01/06 07:03:08;;;;;;;2.90;1.67;;;15.70;55.90;;;;;;5052483;28;20244;-58
2022/01/06 07:05:35;;;;;;;4.10;1.40;;;15.70;55.70;;;;;;5050151;28;20269;-56
2022/01/06 07:08:00;;;;;;;3.55;1.42;;;15.80;55.60;;;;;;5052313;28;20600;-53
2022/01/06 07:10:26;;;;;;;3.47;1.48;;;15.80;55.60;;;;;;5051526;28;20664;-59
2022/01/06 07:12:51;;;;;;;2.97;1.48;;;15.90;55.60;;;;;;5052403;28;20175;-59
2022/01/06 07:15:17;;;;;;;3.95;1.40;;;15.90;55.50;;;;;;5051392;28;20523;-59
2022/01/06 07:17:43;;;;;;;2.95;1.25;;;16.00;55.80;;;;;;5051209;28;20179;-59
2022/01/06 07:20:09;;;;;;;2.10;1.30;;;16.10;55.80;;;;;;5052008;28;20172;-58
2022/01/06 07:22:34;;;;;;;4.15;2.28;;;16.30;55.70;;;;;;5051781;28;20171;-59
2022/01/06 07:25:01;;;;;;;2.28;1.20;;;16.40;55.40;;;;;;5051634;28;20175;-59
2022/01/06 07:27:26;;;;;;;2.65;1.20;;;16.50;55.30;;;;;;5051674;28;20651;-58
2022/01/06 07:29:52;;;;;;;3.58;1.50;;;16.70;55.10;;;;;;5052939;28;20245;-58
2022/01/06 07:32:17;;;;;;;4.72;1.60;;;16.80;54.90;;;;;;5051231;28;20306;-59
2022/01/06 07:34:43;;;;;;;3.00;1.17;;;17.00;55.30;;;;;;5051602;28;20171;-58
2022/01/06 07:37:08;;;;;;;3.35;1.45;;;17.10;54.40;;;;;;5052190;28;20260;-58
2022/01/06 07:39:34;;;;;;;3.67;1.00;;;17.20;54.20;;;;;;5050708;28;20179;-57
2022/01/06 07:41:59;;;;;;;2.95;1.30;;;17.20;54.20;;;;;;5051598;28;20633;-58
2022/01/06 07:44:25;;;;;;;3.08;1.30;;;17.30;54.10;;;;;;5051557;28;20174;-59
2022/01/06 07:46:50;;;;;;;1.65;1.20;;;17.30;54.10;;;;;;5050886;28;20186;-58
2022/01/06 07:49:16;;;;;;;2.88;1.48;;;17.40;53.90;;;;;;5051517;28;20222;-59
2022/01/06 07:51:41;;;;;;;1.48;0.90;;;17.50;53.80;;;;;;5051188;28;20222;-56
2022/01/06 07:54:07;;;;;;;2.78;1.45;;;17.70;53.60;;;;;;5051049;28;20213;-58
2022/01/06 07:56:33;;;;;;;2.38;1.13;;;17.80;53.30;;;;;;5051459;28;20175;-58
2022/01/06 07:58:59;;;;;;;3.30;1.42;;;18.00;53.10;;;;;;5051337;28;20183;-58
2022/01/06 08:01:24;;;;;;;1.75;1.27;;;18.10;52.90;;;;;;5050241;28;20175;-62
2022/01/06 08:03:50;;;;;;;2.15;1.27;;;18.10;53.10;;;;;;5051420;28;20183;-61
2022/01/06 08:06:18;;;;;;;2.17;1.25;;;18.20;52.80;;;;;;5051223;28;20175;-61
2022/01/06 08:08:44;;;;;;;3.05;1.13;;;18.20;53.50;;;;;;5050503;28;20557;-62
2022/01/06 08:11:10;;;;;;;2.40;1.10;;;18.30;53.10;;;;;;5051316;28;20643;-62
2022/01/06 08:13:35;;;;;;;3.78;1.40;;;18.20;53.10;;;;;;5050188;28;20577;-61
2022/01/06 08:16:01;;;;;;;3.25;1.10;;;18.30;53.20;;;;;;5051163;28;20681;-61
2022/01/06 08:18:26;;;;;;;4.25;1.25;;;18.40;53.20;;;;;;5050644;28;20178;-61
2022/01/06 08:20:52;;;;;;;3.65;1.25;;;18.50;53.00;;;;;;5050488;28;20510;-62
2022/01/06 08:23:17;;;;;;;3.75;1.27;;;18.50;53.20;;;;;;5051310;28;20310;-63
2022/01/06 08:25:43;;;;;;;2.72;1.35;;;18.50;53.30;;;;;;5052493;28;20221;-62
2022/01/06 08:28:09;;;;;;;2.25;1.20;;;18.50;53.20;;;;;;5054603;28;20208;-61
2022/01/06 08:30:34;;;;;;;3.60;1.65;;;18.50;53.30;;;;;;5054911;28;20292;-62
2022/01/06 08:33:00;;;;;;;2.70;1.25;;;18.50;53.50;;;;;;5055150;28;20630;-64
2022/01/06 08:35:26;;;;;;;2.05;1.20;;;18.40;53.60;;;;;;5054169;28;20191;-64
2022/01/06 08:37:51;;;;;;;3.15;1.42;;;18.40;53.80;;;;;;5055193;28;20190;-64
2022/01/06 08:40:17;;;;;;;2.85;0.98;;;18.30;53.80;;;;;;5055092;28;20210;-63
2022/01/06 08:42:46;;;;;;;2.78;1.42;;;18.30;53.90;;;;;;5053992;28;20207;-63
2022/01/06 08:45:11;;;;;;;2.45;1.13;;;18.30;53.90;;;;;;5055041;28;20269;-65
2022/01/06 08:47:37;;;;;;;2.47;1.33;;;18.40;53.90;;;;;;5054784;28;20204;-64
2022/01/06 08:50:03;;;;;;;4.75;1.50;;;18.50;53.60;;;;;;5054385;28;20677;-63
2022/01/06 08:52:28;;;;;;;3.15;1.55;;;18.50;53.40;;;;;;5054363;28;20285;-62
2022/01/06 08:54:54;;;;;;;3.33;1.40;;;18.60;53.50;;;;;;5054817;28;20190;-61
2022/01/06 08:57:21;;;;;;;6.13;1.77;;;18.60;53.50;;;;;;5053795;28;20175;-62
2022/01/06 08:59:47;;;;;;;2.45;1.17;;;18.60;53.40;;;;;;5054609;28;20183;-62
2022/01/06 09:02:12;;;;;;;3.97;1.55;;;18.70;53.40;;;;;;5054668;28;20536;-63
2022/01/06 09:04:38;;;;;;;5.70;1.60;;;18.70;53.50;;;;;;5053340;28;20190;-65
2022/01/06 09:07:04;;;;;;;3.42;1.45;;;18.70;53.60;;;;;;5054344;28;20167;-64
2022/01/06 09:09:29;;;;;;;3.65;1.60;;;18.70;53.80;;;;;;5054466;28;20269;-62
2022/01/06 09:11:55;;;;;;;2.65;1.30;;;18.70;53.70;;;;;;5053788;28;20171;-61
2022/01/06 09:14:22;;;;;;;2.20;1.13;;;18.70;53.90;;;;;;5053864;28;20194;-62
2022/01/06 09:16:48;;;;;;;5.53;1.60;;;18.70;53.90;;;;;;5054285;28;20195;-61
2022/01/06 09:19:13;;;;;;;5.18;1.20;;;18.70;53.90;;;;;;5053661;28;20403;-61
2022/01/06 09:21:39;;;;;;;2.15;1.15;;;18.70;54.00;;;;;;5053844;28;20177;-63
2022/01/06 09:24:07;;;;;;;3.50;1.40;;;18.60;54.20;;;;;;5053555;28;20167;-61
2022/01/06 09:26:34;;;;;;;4.63;1.63;;;18.50;54.30;;;;;;5053935;28;20536;-61
2022/01/06 09:29:00;;;;;;;4.28;1.58;;;18.40;54.40;;;;;;5054005;28;20275;-60
2022/01/06 09:31:25;;;;;;;3.35;1.60;;;18.30;54.70;;;;;;5052659;28;20257;-62
2022/01/06 09:33:51;;;;;;;3.38;1.58;;;18.30;54.80;;;;;;5054247;28;20167;-62
2022/01/06 09:36:16;;;;;;;2.78;1.40;;;18.30;55.00;;;;;;5054122;28;20629;-63
2022/01/06 09:38:45;;;;;;;5.82;2.05;;;18.30;54.90;;;;;;5051881;28;20541;-62
2022/01/06 09:41:11;;;;;;;4.95;1.70;;;18.20;54.90;;;;;;5053833;28;20179;-62
2022/01/06 09:43:36;;;;;;;2.53;1.60;;;18.20;55.00;;;;;;5053452;28;20179;-62
2022/01/06 09:46:08;;;;;;;3.72;1.77;;;18.10;54.90;;;;;;5052874;28;20211;-62
2022/01/06 09:48:37;;;;;;;6.13;2.42;;;18.10;55.00;;;;;;5053620;28;20261;-61
2022/01/06 09:51:03;;;;;;;4.13;2.05;;;18.10;55.40;;;;;;5053302;28;20219;-61
2022/01/06 09:53:28;;;;;;;4.32;2.30;;;18.10;55.20;;;;;;5052731;28;20241;-61
2022/01/06 09:55:54;;;;;;;4.20;2.40;;;18.00;55.50;;;;;;5053445;28;20567;-62
2022/01/06 09:58:27;;;;;;;4.97;1.90;;;18.00;55.50;;;;;;5053122;28;20715;-62
2022/01/06 10:00:52;;;;;;;6.30;2.53;;;18.00;55.40;;;;;;5052259;28;20405;-68
2022/01/06 10:03:18;;;;;;;8.00;3.10;;;18.10;55.90;;;;;;5053486;28;20660;-67
2022/01/06 10:05:45;;;;;;;5.43;2.92;;;18.40;55.10;;;;;;5053472;28;20180;-69
2022/01/06 10:08:11;;;;;;;9.05;3.40;;;18.60;55.40;;;;;;5052514;28;20440;-61
2022/01/06 10:10:37;;;;;;;6.45;3.08;;;18.80;54.60;;;;;;5052720;28;20269;-61
2022/01/06 10:13:08;;;;;;;8.75;3.13;;;18.80;54.20;;;;;;5053079;28;20258;-63
2022/01/06 10:15:35;;;;;;;5.30;3.53;;;18.70;54.60;;;;;;5052596;28;20190;-62
2022/01/06 10:18:14;;;;;;;6.00;2.88;;;18.50;55.10;;;;;;5053197;28;20217;-61
2022/01/06 10:20:39;;;;;;;4.43;3.38;;;18.40;55.20;;;;;;5051975;28;20783;-63
2022/01/06 10:23:10;;;;;;;6.97;3.08;;;18.20;55.70;;;;;;5052920;28;20175;-64
2022/01/06 10:25:38;;;;;;;9.05;3.70;;;18.10;55.90;;;;;;5052542;28;20179;-63
2022/01/06 10:28:19;;;;;;;4.90;2.65;;;18.10;56.00;;;;;;5052104;28;20171;-65
2022/01/06 10:30:48;;;;;;;5.05;3.03;;;18.10;56.40;;;;;;5053192;28;20190;-66
2022/01/06 10:33:23;;;;;;;3.83;3.22;;;18.00;56.10;;;;;;5051820;28;20171;-64
2022/01/06 10:35:51;;;;;;;4.47;2.88;;;18.00;56.10;;;;;;5052094;28;20174;-64
2022/01/06 10:38:26;;;;;;;6.38;3.40;;;18.00;56.10;;;;;;5052756;28;20168;-64
2022/01/06 10:40:52;;;;;;;5.10;2.90;;;17.90;56.00;;;;;;5052987;28;20178;-64
2022/01/06 10:43:17;;;;;;;6.25;2.92;;;17.90;56.10;;;;;;5050775;28;20171;-64
2022/01/06 10:45:43;;;;;;;6.40;3.20;;;17.90;56.10;;;;;;5052314;28;20221;-64
2022/01/06 10:48:08;;;;;;;7.38;3.28;;;17.90;56.30;;;;;;5051377;28;20225;-63
2022/01/06 10:50:36;;;;;;;5.60;3.40;;;17.90;56.30;;;;;;5051888;28;20187;-62
2022/01/06 10:53:10;;;;;;;5.20;2.75;;;17.90;56.30;;;;;;5052711;28;20281;-63
2022/01/06 10:55:37;;;;;;;5.43;2.88;;;17.90;56.40;;;;;;5051734;28;20179;-64
2022/01/06 10:58:09;;;;;;;6.13;2.97;;;17.90;56.30;;;;;;5052622;28;20190;-64
2022/01/06 11:00:42;;;;;;;5.72;3.15;;;17.90;56.20;;;;;;5051999;28;20626;-61
2022/01/06 11:03:12;;;;;;;6.85;3.47;;;17.90;56.30;;;;;;5051427;28;20183;-62
2022/01/06 11:05:46;;;;;;;5.45;2.75;;;17.90;56.30;;;;;;5052157;28;20179;-63
2022/01/06 11:08:13;;;;;;;5.63;3.20;;;17.90;56.40;;;;;;5052193;28;20179;-64
2022/01/06 11:10:46;;;;;;;5.47;2.95;;;17.90;56.30;;;;;;5050979;28;20204;-63
2022/01/06 11:13:11;;;;;;;4.72;3.10;;;17.90;56.30;;;;;;5051878;28;20179;-62
2022/01/06 11:15:37;;;;;;;4.80;2.65;;;17.80;56.20;;;;;;5051465;28;20294;-65
2022/01/06 11:18:04;;;;;;;4.93;3.00;;;17.90;56.30;;;;;;5051508;28;20317;-65
2022/01/06 11:20:30;;;;;;;7.30;3.00;;;17.90;56.20;;;;;;5051572;28;20246;-64
2022/01/06 11:22:57;;;;;;;3.17;2.45;;;17.90;56.10;;;;;;5050569;28;20747;-63
2022/01/06 11:25:29;;;;;;;4.60;2.80;;;17.90;56.00;;;;;;5051008;28;20357;-63
2022/01/06 11:28:04;;;;;;;4.38;2.75;;;17.90;56.00;;;;;;5051507;28;20175;-63
2022/01/06 11:30:59;;;;;;;3.72;2.70;;;17.90;56.00;;;;;;5051381;28;20261;-63
2022/01/06 11:33:25;;;;;;;3.47;2.53;;;17.90;55.90;;;;;;5046614;28;20187;-63
2022/01/06 11:35:51;;;;;;;5.22;2.50;;;17.90;56.00;;;;;;5051609;28;20680;-68
2022/01/06 11:38:19;;;;;;;3.60;2.45;;;17.90;56.00;;;;;;5050296;28;20211;-66
2022/01/06 11:40:45;;;;;;;4.13;2.60;;;17.90;56.00;;;;;;5051078;28;20539;-66
2022/01/06 11:43:10;;;;;;;5.50;2.85;;;17.90;56.10;;;;;;5051399;28;20175;-60
2022/01/06 11:45:36;;;;;;;4.75;2.30;;;17.90;56.10;;;;;;5050017;28;20613;-60
2022/01/06 11:48:09;;;;;;;5.10;2.30;;;17.90;56.10;;;;;;5050045;28;20566;-61
2022/01/06 11:50:39;;;;;;;4.25;2.65;;;17.80;55.90;;;;;;5050859;28;20260;-63
2022/01/06 11:53:05;;;;;;;3.92;2.45;;;17.80;55.90;;;;;;5050945;28;20186;-63
2022/01/06 11:55:33;;;;;;;5.13;2.63;;;17.80;55.80;;;;;;5050900;28;20187;-64
2022/01/06 11:58:21;;;;;;;2.60;2.25;;;17.80;55.80;;;;;;5051477;28;20171;-63
2022/01/06 12:00:58;;;;;;;3.60;2.78;;;17.80;55.80;;;;;;5049955;28;20326;-64
2022/01/06 12:03:36;;;;;;;3.67;2.72;;;17.80;55.90;;;;;;5050742;28;20171;-65
2022/01/06 12:06:02;;;;;;;3.95;2.25;;;17.80;56.10;;;;;;5050665;28;20182;-63
2022/01/06 12:08:39;;;;;;;3.60;2.40;;;17.80;56.10;;;;;;5050847;28;20183;-63
2022/01/06 12:11:05;;;;;;;4.78;2.63;;;17.80;56.10;;;;;;5051339;28;20192;-64
2022/01/06 12:13:41;;;;;;;5.13;2.70;;;17.80;56.20;;;;;;5050362;28;20175;-63
2022/01/06 12:16:06;;;;;;;6.28;2.70;;;17.90;56.80;;;;;;5049463;28;20182;-63
2022/01/06 12:18:32;;;;;;;3.58;2.15;;;17.90;56.20;;;;;;5051036;28;20224;-63
2022/01/06 12:20:58;;;;;;;5.35;2.25;;;17.90;56.10;;;;;;5050448;28;20229;-63
2022/01/06 12:23:24;;;;;;;5.20;2.38;;;17.90;56.00;;;;;;5050698;28;20171;-63
2022/01/06 12:26:00;;;;;;;8.75;2.47;;;17.90;56.10;;;;;;5050906;28;20526;-63
2022/01/06 12:28:26;;;;;;;2.95;2.08;;;17.90;56.10;;;;;;5049869;28;20263;-63
2022/01/06 12:30:59;;;;;;;3.78;2.25;;;17.90;56.10;;;;;;5050841;28;20183;-64
2022/01/06 12:33:24;;;;;;;4.18;2.10;;;17.90;56.20;;;;;;5050718;28;20217;-65
2022/01/06 12:35:52;;;;;;;3.38;2.05;;;17.90;56.30;;;;;;5050465;28;20198;-64
2022/01/06 12:38:26;;;;;;;5.55;2.42;;;17.90;56.30;;;;;;5051128;28;20175;-65
2022/01/06 12:40:52;;;;;;;3.92;2.47;;;18.00;56.30;;;;;;5048936;28;20644;-66
2022/01/06 12:43:28;;;;;;;4.70;2.60;;;18.00;56.20;;;;;;5050748;28;20179;-64
2022/01/06 12:46:23;;;;;;;6.15;2.53;;;18.00;56.20;;;;;;5050982;28;20175;-65
2022/01/06 12:48:51;;;;;;;5.93;2.40;;;17.90;56.20;;;;;;5045371;28;20686;-65
2022/01/06 12:51:24;;;;;;;4.45;2.20;;;17.90;56.20;;;;;;5050584;28;20230;-66
2022/01/06 12:53:51;;;;;;;5.28;2.53;;;17.90;56.20;;;;;;5051196;28;20182;-65
2022/01/06 12:56:26;;;;;;;5.18;2.15;;;17.90;56.30;;;;;;5050188;28;20187;-65
2022/01/06 12:58:52;;;;;;;4.65;2.55;;;17.90;56.30;;;;;;5050826;28;20554;-66
2022/01/06 13:01:17;;;;;;;4.68;2.00;;;17.90;56.30;;;;;;5050792;28;20171;-66